To NAV CANADA Home Page Login to a new session Search on AWWS site Disclaimer Vers la page française équivalente Tips FAQ What's new on the site To the Forecasts and Observations / NOTAM section To "File a Flight Plan" website Publications and other links Update of the User's profile FIC Telephone Numbers My Weather Data Folder Route Weather Data Regional Weather Data Local Weather Data To the Forecasts and Observations / NOTAM section
Request Generated 03/19/2019 at 23:36:35 UTC . Weather information available at that time is displayed.

METAR/TAF

HALIFAX/STANFIELD INTL/NS    (show WxCam)

METAR CYHZ 192300Z 32006KT 15SM FEW050 M03/M13 A3025 RMK SC1 SC TR SLP254=
METAR CYHZ 192200Z 31011KT 15SM FEW060 M01/M14 A3023 RMK SC1 SC TR SLP246=
METAR CYHZ 192100Z 31012KT 290V350 15SM FEW060 M00/M13 A3021 RMK CU2 SLP240=

TAF CYHZ 192038Z 1921/2018 28012KT P6SM SCT050 TEMPO 1921/2003 BKN030
FM200300 27008KT P6SM FEW030 TEMPO 2003/2006 BKN030
FM200900 28005KT P6SM SKC
BECMG 2013/2015 27012KT
RMK NXT FCST BY 200000Z=
Your time UTC time
Weather data provided by Environment Canada and NAV CANADA